createdAt,value
2022-11-17T00:02:07.727Z,18.40
2022-11-17T00:04:35.961Z,17.83
2022-11-17T00:07:06.618Z,18.03
2022-11-17T00:09:34.910Z,18.17
2022-11-17T00:12:22.711Z,18.30
2022-11-17T00:14:52.696Z,17.87
2022-11-17T00:17:20.993Z,18.63
2022-11-17T00:20:06.768Z,19.70
2022-11-17T00:22:35.029Z,18.33
2022-11-17T00:25:03.314Z,17.40
2022-11-17T00:27:31.607Z,19.03
2022-11-17T00:30:01.263Z,19.67
2022-11-17T00:32:46.977Z,18.40
2022-11-17T00:35:15.248Z,18.50
2022-11-17T00:38:04.238Z,18.97
2022-11-17T00:40:32.518Z,18.90
2022-11-17T00:43:00.769Z,19.63
2022-11-17T00:45:30.392Z,18.97
2022-11-17T00:47:58.642Z,18.60
2022-11-17T00:50:26.903Z,20.00
2022-11-17T00:52:55.260Z,19.47
2022-11-17T00:55:23.808Z,19.40
2022-11-17T00:57:52.078Z,18.67
2022-11-17T01:00:21.441Z,20.17
2022-11-17T01:02:51.155Z,20.20
2022-11-17T01:05:19.405Z,19.37
2022-11-17T01:07:48.076Z,19.73
2022-11-17T01:10:16.455Z,18.73
2022-11-17T01:12:44.717Z,19.37
2022-11-17T01:15:12.979Z,18.87
2022-11-17T01:17:41.240Z,18.90
2022-11-17T01:20:11.786Z,19.13
2022-11-17T01:22:40.068Z,20.30
2022-11-17T01:25:09.463Z,18.17
2022-11-17T01:27:37.930Z,19.50
2022-11-17T01:30:08.186Z,20.80
2022-11-17T01:32:36.468Z,18.53
2022-11-17T01:35:04.902Z,19.23
2022-11-17T01:37:34.539Z,19.87
2022-11-17T01:40:02.793Z,19.67
2022-11-17T01:42:31.589Z,19.23
2022-11-17T01:45:02.266Z,19.00
2022-11-17T01:47:40.507Z,19.30
2022-11-17T01:50:19.685Z,18.90
2022-11-17T01:52:51.633Z,19.77
2022-11-17T01:55:21.825Z,19.00
2022-11-17T01:57:54.070Z,19.87
2022-11-17T02:00:22.417Z,19.07
2022-11-17T02:02:51.549Z,19.23
2022-11-17T02:05:34.439Z,18.60
2022-11-17T02:08:07.658Z,19.17
2022-11-17T02:10:37.146Z,18.83
2022-11-17T02:13:06.297Z,20.43
2022-11-17T02:15:34.573Z,19.27
2022-11-17T02:18:03.251Z,18.80
2022-11-17T02:20:51.786Z,19.83
2022-11-17T02:24:03.725Z,20.20
2022-11-17T02:26:56.000Z,20.50
2022-11-17T02:29:31.624Z,20.13
2022-11-17T02:32:06.888Z,18.97
2022-11-17T02:34:44.762Z,18.67
2022-11-17T02:37:21.663Z,18.53
2022-11-17T02:39:55.283Z,19.67
2022-11-17T02:42:45.846Z,18.47
2022-11-17T02:45:22.154Z,18.70
2022-11-17T02:47:54.779Z,18.90
2022-11-17T02:50:28.437Z,20.40
2022-11-17T02:52:57.453Z,20.30
2022-11-17T02:55:25.747Z,20.40
2022-11-17T02:57:54.005Z,18.50
2022-11-17T03:00:23.904Z,17.97
2022-11-17T03:03:11.420Z,18.97
2022-11-17T03:05:49.450Z,19.67
2022-11-17T03:08:33.127Z,20.33
2022-11-17T03:11:03.835Z,19.77
2022-11-17T03:13:42.064Z,20.07
2022-11-17T03:16:19.415Z,19.43
2022-11-17T03:19:02.065Z,17.87
2022-11-17T03:21:34.192Z,20.03
2022-11-17T03:24:06.779Z,19.27
2022-11-17T03:26:37.855Z,20.00
2022-11-17T03:29:11.027Z,19.13
2022-11-17T03:31:42.642Z,19.00
2022-11-17T03:34:15.309Z,20.10
2022-11-17T03:36:53.398Z,20.07
2022-11-17T03:39:24.892Z,18.93
2022-11-17T03:41:56.534Z,20.03
2022-11-17T03:44:27.850Z,18.60
2022-11-17T03:47:00.877Z,19.40
2022-11-17T03:49:36.801Z,17.80
2022-11-17T03:52:05.483Z,17.83
2022-11-17T03:54:34.454Z,18.07
2022-11-17T03:57:08.786Z,19.50
2022-11-17T03:59:43.873Z,19.33
2022-11-17T04:02:19.474Z,18.67
2022-11-17T04:05:05.571Z,19.17
2022-11-17T04:07:34.311Z,18.83
2022-11-17T04:10:02.572Z,19.23
2022-11-17T04:12:48.013Z,18.80
2022-11-17T04:15:47.494Z,18.27
2022-11-17T04:18:17.366Z,18.93
2022-11-17T04:20:46.007Z,20.07
2022-11-17T04:23:15.933Z,19.83
2022-11-17T04:26:03.722Z,19.13
2022-11-17T04:28:39.773Z,19.80
2022-11-17T04:31:10.758Z,18.77
2022-11-17T04:33:41.570Z,18.90
2022-11-17T04:36:10.685Z,19.90
2022-11-17T04:38:41.684Z,17.83
2022-11-17T04:41:28.880Z,18.80
2022-11-17T04:43:57.746Z,19.30
2022-11-17T04:46:27.085Z,18.87
2022-11-17T04:48:57.594Z,19.30
2022-11-17T04:51:26.926Z,19.10
2022-11-17T04:53:55.744Z,18.60
2022-11-17T04:56:25.033Z,19.73
2022-11-17T04:58:53.673Z,18.37
2022-11-17T05:01:22.719Z,19.47
2022-11-17T05:03:52.538Z,19.23
2022-11-17T05:06:24.549Z,19.80
2022-11-17T05:08:55.651Z,19.73
2022-11-17T05:11:42.482Z,22.50
2022-11-17T05:14:11.163Z,24.67
2022-11-17T05:16:57.028Z,25.00
2022-11-17T05:19:27.371Z,22.90
2022-11-17T05:21:57.465Z,22.90
2022-11-17T05:24:24.811Z,21.40
2022-11-17T05:26:53.138Z,20.23
2022-11-17T05:29:23.210Z,21.90
2022-11-17T05:31:51.819Z,20.30
2022-11-17T05:34:20.210Z,21.10
2022-11-17T05:36:48.524Z,21.33
2022-11-17T05:39:18.146Z,22.83
2022-11-17T05:41:46.423Z,20.40
2022-11-17T05:44:14.641Z,20.27
2022-11-17T05:46:42.930Z,20.50
2022-11-17T05:49:11.204Z,21.90
2022-11-17T05:51:39.428Z,20.67
2022-11-17T05:54:07.768Z,21.47
2022-11-17T05:56:41.156Z,21.37
2022-11-17T05:59:18.795Z,20.90
2022-11-17T06:01:54.510Z,19.63
2022-11-17T06:04:22.973Z,19.60
2022-11-17T06:06:51.817Z,20.13
2022-11-17T06:09:20.643Z,19.90
2022-11-17T06:11:50.276Z,19.70
2022-11-17T06:14:20.501Z,21.27
2022-11-17T06:16:52.631Z,20.90
2022-11-17T06:19:26.117Z,24.60
2022-11-17T06:22:11.629Z,22.37
2022-11-17T06:24:42.387Z,21.80
2022-11-17T06:27:13.200Z,21.67
2022-11-17T06:29:45.000Z,20.93
2022-11-17T06:32:14.415Z,23.75
2022-11-17T06:34:43.452Z,22.07
2022-11-17T06:37:12.424Z,21.00
2022-11-17T06:39:40.724Z,21.33
2022-11-17T06:42:09.140Z,20.50
2022-11-17T06:44:39.329Z,21.40
2022-11-17T06:47:07.728Z,20.43
2022-11-17T06:49:36.075Z,21.67
2022-11-17T06:52:04.368Z,20.07
2022-11-17T06:54:34.970Z,19.90
2022-11-17T06:57:03.417Z,23.35
2022-11-17T06:59:31.714Z,21.27
2022-11-17T07:02:01.542Z,21.13
2022-11-17T07:04:29.866Z,23.43
2022-11-17T07:06:58.237Z,23.43
2022-11-17T07:09:26.657Z,25.07
2022-11-17T07:11:55.232Z,27.33
2022-11-17T07:14:23.692Z,27.53
2022-11-17T07:16:52.012Z,25.30
2022-11-17T07:19:21.742Z,24.33
2022-11-17T07:21:50.061Z,24.73
2022-11-17T07:24:18.412Z,23.23
2022-11-17T07:26:46.722Z,22.00
2022-11-17T07:29:15.040Z,20.87
2022-11-17T07:31:43.381Z,21.23
2022-11-17T07:34:11.791Z,22.23
2022-11-17T07:36:41.626Z,24.85
2022-11-17T07:39:10.700Z,22.33
2022-11-17T07:41:38.989Z,22.50
2022-11-17T07:44:07.595Z,22.63
2022-11-17T07:46:36.042Z,22.70
2022-11-17T07:49:04.471Z,21.33
2022-11-17T07:51:32.882Z,22.37
2022-11-17T07:54:02.724Z,21.97
2022-11-17T07:56:31.057Z,21.83
2022-11-17T07:58:59.453Z,22.30
2022-11-17T08:01:28.071Z,22.73
2022-11-17T08:03:59.783Z,22.53
2022-11-17T08:06:28.128Z,21.00
2022-11-17T08:08:56.521Z,20.10
2022-11-17T08:11:26.419Z,22.50
2022-11-17T08:13:54.741Z,23.07
2022-11-17T08:16:23.102Z,22.83
2022-11-17T08:18:52.661Z,20.63
2022-11-17T08:21:21.353Z,21.63
2022-11-17T08:23:52.859Z,19.00
2022-11-17T08:26:21.707Z,16.50
2022-11-17T08:28:57.902Z,15.60
2022-11-17T08:31:27.045Z,17.07
2022-11-17T08:33:55.800Z,16.40
2022-11-17T08:36:24.154Z,15.27
2022-11-17T08:38:52.516Z,16.83
2022-11-17T08:41:21.869Z,16.03
2022-11-17T08:43:51.728Z,15.87
2022-11-17T08:46:20.022Z,15.63
2022-11-17T08:48:52.204Z,15.10
2022-11-17T08:51:24.106Z,15.90
2022-11-17T08:53:52.459Z,15.23
2022-11-17T08:56:20.877Z,18.10
2022-11-17T08:58:49.302Z,16.67
2022-11-17T09:01:19.221Z,17.70
2022-11-17T09:03:48.889Z,16.07
2022-11-17T09:06:18.181Z,16.20
2022-11-17T09:08:47.469Z,17.73
2022-11-17T09:11:16.773Z,18.27
2022-11-17T09:13:47.088Z,19.63
2022-11-17T09:16:17.016Z,17.73
2022-11-17T09:18:46.728Z,18.10
2022-11-17T09:21:17.232Z,17.93
2022-11-17T09:23:45.579Z,18.93
2022-11-17T09:26:15.169Z,17.13
2022-11-17T09:28:44.262Z,18.30
2022-11-17T09:31:14.548Z,17.90
2022-11-17T09:33:43.030Z,16.40
2022-11-17T09:36:14.437Z,15.37
2022-11-17T09:38:43.139Z,15.03
2022-11-17T09:41:22.191Z,16.17
2022-11-17T09:43:54.966Z,14.97
2022-11-17T09:46:28.840Z,14.13
2022-11-17T09:49:06.744Z,13.43
2022-11-17T09:51:39.445Z,15.20
2022-11-17T09:54:15.306Z,13.80
2022-11-17T09:56:44.209Z,13.03
2022-11-17T09:59:15.365Z,13.47
2022-11-17T10:01:43.857Z,12.60
2022-11-17T10:04:14.289Z,13.97
2022-11-17T10:06:50.032Z,12.23
2022-11-17T10:09:25.864Z,12.63
2022-11-17T10:12:03.039Z,11.93
2022-11-17T10:14:31.431Z,12.43
2022-11-17T10:17:00.753Z,11.30
2022-11-17T10:19:31.105Z,11.90
2022-11-17T10:22:20.402Z,12.13
2022-11-17T10:24:52.225Z,12.53
2022-11-17T10:27:24.264Z,12.43
2022-11-17T10:30:00.754Z,11.10
2022-11-17T10:32:30.743Z,12.37
2022-11-17T10:35:15.189Z,11.27
2022-11-17T10:37:52.777Z,12.13
2022-11-17T10:40:25.681Z,11.13
2022-11-17T10:43:24.405Z,10.90
2022-11-17T10:45:55.050Z,10.00
2022-11-17T10:48:29.757Z,10.90
2022-11-17T10:51:21.408Z,10.33
2022-11-17T10:54:03.246Z,10.27
2022-11-17T10:56:34.029Z,10.00
2022-11-17T10:59:13.716Z,10.43
2022-11-17T11:01:43.876Z,9.87
2022-11-17T11:04:34.910Z,10.40
2022-11-17T11:07:12.516Z,10.87
2022-11-17T11:09:49.000Z,10.67
2022-11-17T11:12:21.434Z,11.60
2022-11-17T11:14:55.182Z,10.70
2022-11-17T11:17:23.516Z,10.33
2022-11-17T11:19:54.043Z,11.27
2022-11-17T11:22:30.073Z,12.10
2022-11-17T11:25:11.158Z,12.10
2022-11-17T11:27:55.823Z,12.33
2022-11-17T11:30:24.115Z,11.00
2022-11-17T11:33:03.995Z,12.27
2022-11-17T11:36:05.142Z,12.10
2022-11-17T11:38:53.542Z,12.97
2022-11-17T11:41:36.071Z,12.53
2022-11-17T11:44:20.309Z,14.73
2022-11-17T11:46:57.000Z,14.83
2022-11-17T11:49:33.646Z,13.77
2022-11-17T11:52:03.558Z,15.67
2022-11-17T11:54:40.239Z,15.40
2022-11-17T11:57:14.904Z,15.37
2022-11-17T11:59:50.827Z,14.13
2022-11-17T12:02:29.115Z,14.70
2022-11-17T12:05:13.322Z,16.10
2022-11-17T12:07:47.690Z,14.87
2022-11-17T12:10:22.209Z,15.97
2022-11-17T12:12:52.365Z,14.80
2022-11-17T12:15:37.751Z,16.20
2022-11-17T12:18:12.457Z,15.33
2022-11-17T12:20:58.940Z,13.50
2022-11-17T12:23:57.317Z,13.57
2022-11-17T12:26:28.438Z,12.70
2022-11-17T12:29:46.159Z,13.37
2022-11-17T12:32:52.770Z,13.40
2022-11-17T12:35:32.071Z,14.50
2022-11-17T12:38:37.803Z,14.17
2022-11-17T12:41:06.444Z,14.03
2022-11-17T12:43:34.786Z,13.43
2022-11-17T12:46:20.682Z,13.63
2022-11-17T12:48:58.805Z,12.60
2022-11-17T12:51:34.355Z,12.73
2022-11-17T12:54:13.483Z,12.70
2022-11-17T12:56:57.374Z,13.67
2022-11-17T12:59:42.017Z,13.20
2022-11-17T13:02:26.186Z,11.27
2022-11-17T13:04:59.038Z,12.57
2022-11-17T13:07:28.448Z,11.23
2022-11-17T13:09:58.579Z,11.67
2022-11-17T13:12:28.594Z,12.43
2022-11-17T13:14:58.156Z,11.53
2022-11-17T13:17:32.189Z,10.77
2022-11-17T13:20:02.776Z,11.37
2022-11-17T13:22:32.377Z,9.73
2022-11-17T13:25:20.276Z,10.77
2022-11-17T13:27:54.975Z,10.67
2022-11-17T13:30:26.460Z,9.83
2022-11-17T13:32:57.331Z,10.33
2022-11-17T13:35:27.573Z,10.97
2022-11-17T13:38:19.040Z,10.33
2022-11-17T13:40:48.370Z,10.63
2022-11-17T13:43:20.479Z,9.97
2022-11-17T13:45:49.147Z,9.13
2022-11-17T13:48:35.616Z,9.47
2022-11-17T13:51:29.396Z,10.37
2022-11-17T13:54:01.015Z,9.93
2022-11-17T13:56:35.598Z,10.03
2022-11-17T13:59:07.103Z,10.90
2022-11-17T14:01:35.437Z,10.87
2022-11-17T14:04:20.203Z,11.23
2022-11-17T14:06:57.198Z,10.90
2022-11-17T14:09:27.051Z,9.83
2022-11-17T14:11:56.112Z,9.97
2022-11-17T14:14:31.819Z,9.40
2022-11-17T14:17:09.518Z,9.67
2022-11-17T14:19:39.507Z,9.77
2022-11-17T14:22:30.880Z,8.70
2022-11-17T14:25:00.113Z,9.83
2022-11-17T14:27:41.326Z,9.07
2022-11-17T14:30:14.408Z,8.27
2022-11-17T14:32:42.772Z,9.57
2022-11-17T14:37:49.641Z,8.70
2022-11-17T14:40:19.152Z,9.67
2022-11-17T14:42:47.418Z,9.00
2022-11-17T14:45:17.744Z,9.47
2022-11-17T14:47:46.029Z,9.20
2022-11-17T14:50:17.364Z,9.23
2022-11-17T14:52:46.679Z,8.57
2022-11-17T14:55:15.663Z,9.17
2022-11-17T14:57:43.909Z,9.20
2022-11-17T15:00:18.867Z,8.93
2022-11-17T15:02:48.688Z,9.27
2022-11-17T15:05:18.573Z,9.77
2022-11-17T15:07:49.130Z,9.00
2022-11-17T15:10:18.199Z,10.60
2022-11-17T15:12:46.517Z,9.40
2022-11-17T15:15:18.054Z,9.23
2022-11-17T15:17:46.356Z,9.93
2022-11-17T15:20:14.780Z,10.33
2022-11-17T15:22:44.462Z,9.13
2022-11-17T15:25:12.846Z,9.20
2022-11-17T15:27:41.100Z,10.07
2022-11-17T15:30:14.266Z,10.57
2022-11-17T15:32:42.587Z,9.93
2022-11-17T15:35:11.180Z,9.13
2022-11-17T15:37:41.144Z,9.33
2022-11-17T15:40:17.962Z,9.77
2022-11-17T15:42:47.676Z,10.43
2022-11-17T15:45:16.314Z,9.60
2022-11-17T15:47:44.539Z,9.77
2022-11-17T15:50:14.912Z,8.87
2022-11-17T15:53:02.854Z,9.03
2022-11-17T15:55:34.497Z,10.17
2022-11-17T15:58:02.771Z,10.23
2022-11-17T16:00:36.006Z,10.98
2022-11-17T16:03:13.616Z,9.70
2022-11-17T16:05:41.962Z,10.30
2022-11-17T16:08:10.269Z,9.00
2022-11-17T16:10:40.040Z,9.73
2022-11-17T16:13:08.388Z,10.13
2022-11-17T16:15:36.691Z,9.00
2022-11-17T16:18:05.131Z,9.73
2022-11-17T16:20:33.484Z,8.20
2022-11-17T16:23:01.917Z,8.93
2022-11-17T16:25:32.123Z,8.43
2022-11-17T16:28:01.779Z,7.50
2022-11-17T16:30:35.158Z,7.20
2022-11-17T16:33:04.119Z,6.87
2022-11-17T16:35:32.553Z,6.67
2022-11-17T16:38:00.922Z,6.83
2022-11-17T16:40:29.300Z,6.30
2022-11-17T16:42:59.019Z,6.20
2022-11-17T16:45:28.756Z,6.13
2022-11-17T16:47:57.053Z,5.23
2022-11-17T16:50:25.400Z,5.07
2022-11-17T16:52:53.643Z,6.37
2022-11-17T16:55:21.887Z,5.57
2022-11-17T16:57:50.093Z,6.07
2022-11-17T17:00:18.701Z,6.77
2022-11-17T17:02:51.691Z,6.07
2022-11-17T17:05:20.386Z,6.80
2022-11-17T17:07:48.980Z,6.30
2022-11-17T17:10:17.403Z,6.43
2022-11-17T17:12:45.735Z,6.10
2022-11-17T17:15:14.233Z,6.43
2022-11-17T17:17:42.533Z,6.50
2022-11-17T17:20:13.411Z,5.77
2022-11-17T17:22:41.707Z,6.23
2022-11-17T17:25:10.648Z,6.70
2022-11-17T17:27:39.012Z,6.53
2022-11-17T17:30:08.375Z,6.93
2022-11-17T17:32:36.644Z,7.07
2022-11-17T17:35:05.311Z,7.97
2022-11-17T17:37:35.098Z,7.03
2022-11-17T17:40:04.131Z,6.17
2022-11-17T17:42:32.390Z,6.87
2022-11-17T17:45:00.684Z,6.73
2022-11-17T17:47:29.004Z,6.67
2022-11-17T17:49:57.300Z,7.00
2022-11-17T17:52:25.694Z,7.90
2022-11-17T17:54:56.939Z,7.90
2022-11-17T17:57:27.621Z,7.33
2022-11-17T17:59:58.215Z,7.78
2022-11-17T18:02:28.504Z,6.90
2022-11-17T18:04:56.787Z,6.30
2022-11-17T18:07:25.093Z,6.87
2022-11-17T18:09:54.920Z,7.43
2022-11-17T18:12:23.344Z,7.22
2022-11-17T18:14:51.660Z,6.83
2022-11-17T18:17:19.933Z,6.80
2022-11-17T18:19:48.204Z,6.23
2022-11-17T18:22:16.522Z,6.27
2022-11-17T18:24:44.777Z,6.27
2022-11-17T18:27:14.518Z,6.50
2022-11-17T18:29:42.868Z,7.20
2022-11-17T18:32:11.200Z,6.90
2022-11-17T18:34:41.850Z,7.07
2022-11-17T18:37:10.098Z,7.20
2022-11-17T18:39:38.404Z,7.70
2022-11-17T18:42:06.893Z,7.53
2022-11-17T18:44:36.584Z,6.70
2022-11-17T18:47:04.857Z,7.47
2022-11-17T18:49:34.613Z,6.57
2022-11-17T18:52:03.356Z,8.38
2022-11-17T18:54:31.599Z,7.73
2022-11-17T18:57:01.637Z,7.67
2022-11-17T18:59:29.929Z,7.37
2022-11-17T19:02:00.101Z,7.17
2022-11-17T19:04:29.553Z,7.82
2022-11-17T19:06:57.825Z,6.73
2022-11-17T19:09:26.204Z,6.07
2022-11-17T19:11:54.509Z,7.17
2022-11-17T19:14:23.107Z,7.33
2022-11-17T19:16:51.589Z,7.80
2022-11-17T19:19:21.283Z,6.17
2022-11-17T19:21:49.748Z,6.67
2022-11-17T19:24:18.220Z,7.20
2022-11-17T19:26:47.460Z,6.30
2022-11-17T19:29:19.031Z,6.63
2022-11-17T19:31:48.614Z,7.30
2022-11-17T19:34:17.337Z,6.90
2022-11-17T19:36:47.237Z,6.93
2022-11-17T19:39:17.061Z,7.27
2022-11-17T19:41:47.772Z,6.63
2022-11-17T19:44:19.244Z,7.30
2022-11-17T19:46:47.583Z,6.90
2022-11-17T19:49:16.045Z,7.63
2022-11-17T19:51:44.459Z,6.80
2022-11-17T19:54:15.070Z,6.93
2022-11-17T19:56:43.329Z,6.63
2022-11-17T19:59:15.983Z,7.03
2022-11-17T20:01:45.587Z,7.13
2022-11-17T20:04:13.881Z,6.77
2022-11-17T20:06:42.226Z,7.10
2022-11-17T20:09:14.330Z,7.77
2022-11-17T20:11:43.324Z,6.80
2022-11-17T20:14:11.665Z,6.20
2022-11-17T20:16:39.957Z,6.27
2022-11-17T20:19:08.538Z,6.43
2022-11-17T20:21:36.829Z,7.60
2022-11-17T20:24:05.576Z,6.23
2022-11-17T20:26:40.543Z,8.40
2022-11-17T20:29:09.041Z,7.63
2022-11-17T20:31:38.020Z,7.07
2022-11-17T20:34:06.856Z,7.40
2022-11-17T20:36:36.206Z,7.00
2022-11-17T20:39:07.923Z,8.67
2022-11-17T20:41:37.662Z,7.87
2022-11-17T20:44:23.839Z,7.00
2022-11-17T20:46:53.134Z,7.53
2022-11-17T20:49:21.542Z,7.90
2022-11-17T20:51:49.854Z,6.53
2022-11-17T20:54:20.507Z,6.97
2022-11-17T20:56:50.179Z,7.93
2022-11-17T20:59:20.173Z,7.00
2022-11-17T21:01:49.361Z,7.47
2022-11-17T21:04:17.636Z,7.47
2022-11-17T21:06:45.943Z,8.07
2022-11-17T21:09:14.713Z,8.10
2022-11-17T21:12:02.921Z,7.00
2022-11-17T21:14:32.589Z,7.17
2022-11-17T21:17:01.492Z,6.87
2022-11-17T21:19:32.349Z,6.80
2022-11-17T21:22:12.655Z,7.50
2022-11-17T21:24:41.028Z,7.33
2022-11-17T21:27:09.257Z,7.40
2022-11-17T21:29:38.939Z,7.33
2022-11-17T21:32:08.033Z,9.03
2022-11-17T21:34:36.278Z,9.30
2022-11-17T21:37:04.510Z,10.17
2022-11-17T21:39:32.781Z,9.97
2022-11-17T21:42:01.023Z,8.73
2022-11-17T21:44:29.341Z,9.00
2022-11-17T21:46:59.029Z,8.70
2022-11-17T21:49:27.362Z,8.47
2022-11-17T21:51:55.618Z,8.40
2022-11-17T21:54:24.016Z,9.63
2022-11-17T21:56:52.270Z,8.50
2022-11-17T21:59:20.495Z,9.17
2022-11-17T22:01:48.755Z,9.47
2022-11-17T22:07:49.189Z,8.53
2022-11-17T22:10:26.510Z,8.77
2022-11-17T22:13:16.634Z,8.30
2022-11-17T22:15:44.946Z,8.70
2022-11-17T22:18:13.270Z,7.03
2022-11-17T22:20:42.890Z,10.10
2022-11-17T22:23:11.141Z,8.77
2022-11-17T22:25:45.345Z,8.73
2022-11-17T22:28:14.842Z,7.90
2022-11-17T22:30:43.095Z,7.93
2022-11-17T22:33:11.391Z,8.30
2022-11-17T22:35:39.659Z,9.10
2022-11-17T22:38:09.350Z,8.23
2022-11-17T22:40:37.654Z,8.13
2022-11-17T22:43:09.134Z,8.27
2022-11-17T22:45:41.851Z,7.83
2022-11-17T22:48:10.467Z,8.07
2022-11-17T22:50:38.823Z,9.00
2022-11-17T22:53:08.495Z,9.90
2022-11-17T22:55:36.980Z,9.13
2022-11-17T22:58:05.398Z,10.10
2022-11-17T23:00:33.715Z,9.17
2022-11-17T23:03:02.131Z,8.33
2022-11-17T23:05:30.408Z,8.53
2022-11-17T23:07:58.662Z,9.07
2022-11-17T23:10:28.626Z,8.97
2022-11-17T23:12:56.996Z,8.40
2022-11-17T23:15:25.238Z,8.63
2022-11-17T23:17:53.506Z,9.07
2022-11-17T23:20:21.766Z,10.27
2022-11-17T23:22:50.011Z,9.73
2022-11-17T23:25:19.892Z,8.87
2022-11-17T23:27:49.570Z,8.47
2022-11-17T23:30:18.366Z,8.27
2022-11-17T23:32:47.969Z,8.97
2022-11-17T23:35:16.298Z,9.03
2022-11-17T23:37:44.553Z,8.77
2022-11-17T23:40:13.489Z,8.40
2022-11-17T23:42:43.260Z,8.70
2022-11-17T23:45:13.729Z,8.67
2022-11-17T23:47:42.030Z,8.73
2022-11-17T23:50:10.696Z,9.57
2022-11-17T23:52:39.010Z,9.13
2022-11-17T23:55:08.628Z,8.53
2022-11-17T23:57:36.878Z,8.97
